Time;durP1;ratioP1;P1;durP2;ratioP2;P2;SDS_P1;SDS_P2;PMS_P1;PMS_P2;Temp;Humidity;BMP_temperature;BMP_pressure;BME280_temperature;BME280_humidity;BME280_pressure;Samples;Min_cycle;Max_cycle;Signal;HPM_P1;HPM_P2
2023/04/24 00:00:27;;;;;;;6.30;1.60;;;14.60;76.50;;;;;;5063801;28;20865;-65
2023/04/24 00:03:02;;;;;;;5.23;1.80;;;14.60;76.50;;;;;;5067288;28;20547;-66
2023/04/24 00:05:46;;;;;;;4.50;1.30;;;14.60;76.50;;;;;;5068840;28;20458;-65
2023/04/24 00:08:20;;;;;;;4.43;1.63;;;14.60;76.40;;;;;;5068765;28;20813;-65
2023/04/24 00:10:58;;;;;;;6.10;1.50;;;14.60;76.40;;;;;;5068912;28;20548;-65
2023/04/24 00:13:36;;;;;;;8.20;1.60;;;14.60;76.30;;;;;;5066903;28;20538;-65
2023/04/24 00:16:11;;;;;;;3.67;1.50;;;14.60;76.30;;;;;;5066592;28;20498;-66
2023/04/24 00:18:44;;;;;;;5.07;2.03;;;14.60;76.20;;;;;;5066442;28;20453;-65
2023/04/24 00:21:26;;;;;;;5.70;1.67;;;14.60;76.20;;;;;;5066843;28;20463;-65
2023/04/24 00:23:57;;;;;;;9.20;1.60;;;14.60;76.10;;;;;;5064169;28;20461;-65
2023/04/24 00:26:30;;;;;;;6.43;1.73;;;14.60;76.10;;;;;;5067401;28;20910;-65
2023/04/24 00:29:09;;;;;;;4.70;1.90;;;14.60;76.00;;;;;;5068265;28;20458;-67
2023/04/24 00:31:41;;;;;;;5.00;1.90;;;14.60;76.00;;;;;;5056013;28;20489;-65
2023/04/24 00:34:14;;;;;;;4.60;1.50;;;14.50;75.90;;;;;;5065657;28;20488;-65
2023/04/24 00:36:58;;;;;;;4.07;1.70;;;14.50;75.90;;;;;;5070410;28;20476;-66
2023/04/24 00:39:30;;;;;;;4.07;1.20;;;14.50;75.90;;;;;;5068912;28;20476;-65
2023/04/24 00:42:07;;;;;;;3.93;1.60;;;14.50;75.90;;;;;;5063952;28;20457;-65
2023/04/24 00:44:41;;;;;;;5.23;1.90;;;14.50;75.90;;;;;;5065930;28;20454;-65
2023/04/24 00:47:11;;;;;;;3.80;1.37;;;14.50;75.90;;;;;;5070458;28;20446;-65
2023/04/24 00:49:50;;;;;;;3.50;1.40;;;14.50;75.80;;;;;;5066870;28;20502;-65
2023/04/24 00:52:32;;;;;;;4.23;1.30;;;14.50;75.80;;;;;;5068679;28;20477;-65
2023/04/24 00:55:03;;;;;;;3.53;1.23;;;14.50;75.80;;;;;;5063096;28;20506;-65
2023/04/24 00:57:42;;;;;;;3.50;1.60;;;14.40;75.80;;;;;;5066532;28;20461;-65
2023/04/24 01:00:24;;;;;;;3.50;1.10;;;14.40;75.80;;;;;;5059693;28;20951;-65
2023/04/24 01:03:05;;;;;;;4.13;1.27;;;14.40;75.80;;;;;;5069372;28;20474;-65
2023/04/24 01:05:39;;;;;;;4.27;1.23;;;14.40;75.80;;;;;;5086037;28;20464;-65
2023/04/24 01:08:13;;;;;;;5.53;1.73;;;14.30;75.90;;;;;;5070801;28;20468;-65
2023/04/24 01:10:45;;;;;;;5.70;1.30;;;14.40;75.90;;;;;;5069860;28;20857;-66
2023/04/24 01:13:16;;;;;;;4.57;1.30;;;14.40;75.90;;;;;;5069901;28;20464;-65
2023/04/24 01:15:49;;;;;;;4.07;1.37;;;14.40;75.90;;;;;;5071064;28;20556;-66
2023/04/24 01:18:29;;;;;;;3.93;1.30;;;14.30;75.90;;;;;;5069768;28;20454;-65
2023/04/24 01:21:08;;;;;;;5.53;1.53;;;14.30;75.90;;;;;;5071668;28;20522;-65
2023/04/24 01:23:49;;;;;;;4.33;1.40;;;14.30;75.80;;;;;;5069989;28;20569;-65
2023/04/24 01:26:25;;;;;;;4.60;1.40;;;14.30;75.80;;;;;;5070879;28;20510;-65
2023/04/24 01:28:55;;;;;;;4.20;1.30;;;14.30;75.80;;;;;;5073676;28;20476;-66
2023/04/24 01:31:37;;;;;;;4.23;1.33;;;14.30;75.80;;;;;;5069970;28;20571;-65
2023/04/24 01:34:19;;;;;;;3.13;1.20;;;14.40;75.80;;;;;;5068785;28;20868;-65
2023/04/24 01:36:56;;;;;;;5.30;1.60;;;14.40;75.70;;;;;;5071744;28;20497;-65
2023/04/24 01:39:44;;;;;;;4.37;1.40;;;14.40;75.60;;;;;;5068651;28;20563;-65
2023/04/24 01:42:17;;;;;;;3.93;1.23;;;14.30;75.60;;;;;;5068241;28;20457;-66
2023/04/24 01:44:48;;;;;;;5.20;1.20;;;14.30;75.60;;;;;;5067724;28;20451;-65
2023/04/24 01:47:17;;;;;;;6.40;1.40;;;14.30;75.60;;;;;;5067242;28;20787;-65
2023/04/24 01:49:48;;;;;;;5.87;1.30;;;14.30;75.60;;;;;;5069224;28;20553;-65
2023/04/24 01:52:19;;;;;;;4.33;1.33;;;14.30;75.60;;;;;;5071488;28;20441;-65
2023/04/24 01:54:58;;;;;;;7.43;1.30;;;14.30;75.50;;;;;;5071897;28;20472;-65
2023/04/24 01:57:35;;;;;;;5.73;1.70;;;14.40;75.60;;;;;;5069083;28;20505;-65
2023/04/24 02:00:12;;;;;;;4.07;1.00;;;14.30;75.50;;;;;;5070009;28;20481;-65
2023/04/24 02:02:47;;;;;;;4.40;1.13;;;14.30;75.50;;;;;;5069234;28;20483;-65
2023/04/24 02:05:19;;;;;;;5.40;1.40;;;14.30;75.50;;;;;;5069498;28;20932;-66
2023/04/24 02:08:02;;;;;;;4.10;1.30;;;14.30;75.50;;;;;;5071521;28;20457;-65
2023/04/24 02:10:42;;;;;;;4.57;1.00;;;14.20;75.50;;;;;;5067990;28;20462;-66
2023/04/24 02:13:27;;;;;;;3.73;1.30;;;14.30;75.50;;;;;;5070759;28;20522;-65
2023/04/24 02:16:02;;;;;;;3.40;1.20;;;14.30;75.50;;;;;;5074250;28;21059;-65
2023/04/24 02:18:44;;;;;;;3.97;1.20;;;14.30;75.50;;;;;;5068008;28;20948;-65
2023/04/24 02:21:20;;;;;;;5.80;1.60;;;14.30;75.50;;;;;;5070034;28;20457;-65
2023/04/24 02:23:59;;;;;;;4.83;1.40;;;14.20;75.50;;;;;;5070855;28;20574;-65
2023/04/24 02:26:43;;;;;;;4.17;1.10;;;14.20;75.50;;;;;;5068689;28;20458;-65
2023/04/24 02:29:16;;;;;;;5.30;1.20;;;14.30;75.50;;;;;;5069120;28;20507;-65
2023/04/24 02:31:52;;;;;;;3.83;1.37;;;14.20;75.50;;;;;;5068494;28;20475;-65
2023/04/24 02:34:24;;;;;;;4.00;1.10;;;14.20;75.40;;;;;;5077500;28;20565;-65
2023/04/24 02:37:05;;;;;;;3.90;1.37;;;14.20;75.40;;;;;;5072514;28;20482;-66
2023/04/24 02:39:36;;;;;;;5.93;1.13;;;14.20;75.50;;;;;;5070774;28;20473;-66
2023/04/24 02:42:11;;;;;;;4.57;1.70;;;14.20;75.50;;;;;;5070659;28;20460;-65
2023/04/24 02:44:56;;;;;;;4.23;1.40;;;14.20;75.50;;;;;;5069670;28;20547;-65
2023/04/24 02:47:32;;;;;;;3.63;1.30;;;14.20;75.50;;;;;;5068379;28;20465;-65
2023/04/24 02:50:05;;;;;;;4.77;1.20;;;14.20;75.60;;;;;;5069226;28;20464;-65
2023/04/24 02:52:42;;;;;;;3.80;1.23;;;14.20;75.60;;;;;;5069816;28;20516;-65
2023/04/24 02:58:05;;;;;;;5.73;1.20;;;14.20;75.50;;;;;;5071653;28;20480;-65
2023/04/24 03:00:40;;;;;;;4.43;1.93;;;14.20;75.50;;;;;;5069698;28;20485;-65
2023/04/24 03:03:20;;;;;;;4.90;1.40;;;14.20;75.50;;;;;;5068445;28;20533;-65
2023/04/24 03:05:51;;;;;;;4.83;1.10;;;14.20;75.50;;;;;;5068883;28;20469;-66
2023/04/24 03:08:24;;;;;;;4.63;1.50;;;14.20;75.50;;;;;;5076855;28;20458;-66
2023/04/24 03:11:00;;;;;;;5.00;1.50;;;14.20;75.50;;;;;;5071800;28;20498;-66
2023/04/24 03:13:34;;;;;;;7.60;1.30;;;14.20;75.50;;;;;;5067364;28;20531;-65
2023/04/24 03:16:12;;;;;;;4.03;1.20;;;14.20;75.50;;;;;;5069145;28;20577;-66
2023/04/24 03:18:44;;;;;;;5.53;1.27;;;14.10;75.50;;;;;;5068094;28;20561;-65
2023/04/24 03:21:26;;;;;;;6.80;1.80;;;14.10;75.60;;;;;;5062513;28;20562;-65
2023/04/24 03:23:59;;;;;;;5.57;1.60;;;14.10;75.60;;;;;;5066513;28;20532;-65
2023/04/24 03:26:44;;;;;;;5.10;1.20;;;14.10;75.60;;;;;;5064610;28;20631;-66
2023/04/24 03:29:51;;;;;;;6.63;1.40;;;14.10;75.60;;;;;;5068061;28;20449;-65
2023/04/24 03:32:32;;;;;;;4.50;1.27;;;14.10;75.70;;;;;;5065768;28;20485;-65
2023/04/24 03:35:12;;;;;;;4.07;1.33;;;14.10;75.60;;;;;;5070690;28;20468;-65
2023/04/24 03:37:49;;;;;;;6.03;1.63;;;14.10;75.60;;;;;;5068431;28;21373;-65
2023/04/24 03:40:38;;;;;;;5.00;1.37;;;14.10;75.60;;;;;;5068856;28;20530;-65
2023/04/24 03:43:27;;;;;;;5.20;1.37;;;14.10;75.50;;;;;;5065289;28;20564;-65
2023/04/24 03:46:04;;;;;;;9.27;1.40;;;14.10;75.40;;;;;;5067599;28;20445;-65
2023/04/24 03:48:40;;;;;;;4.50;1.40;;;14.10;75.50;;;;;;5067850;28;20459;-65
2023/04/24 03:51:14;;;;;;;6.30;1.40;;;14.00;75.50;;;;;;5061420;28;20469;-65
2023/04/24 03:53:48;;;;;;;4.47;1.70;;;14.00;75.50;;;;;;5067899;28;20491;-65
2023/04/24 03:56:25;;;;;;;5.03;1.40;;;14.00;75.50;;;;;;5066410;28;20492;-65
2023/04/24 03:58:58;;;;;;;3.70;1.10;;;14.00;75.50;;;;;;5069824;28;20506;-66
2023/04/24 04:01:32;;;;;;;4.87;1.40;;;14.00;75.50;;;;;;5062841;28;20521;-65
2023/04/24 04:04:17;;;;;;;7.90;1.07;;;14.00;75.60;;;;;;5067391;28;20769;-65
2023/04/24 04:06:49;;;;;;;7.57;1.70;;;14.00;75.50;;;;;;5052126;28;20462;-65
2023/04/24 04:09:22;;;;;;;4.80;1.10;;;14.10;75.50;;;;;;5067427;28;20472;-65
2023/04/24 04:11:55;;;;;;;5.30;1.30;;;14.00;75.50;;;;;;5067221;28;21088;-65
2023/04/24 04:14:44;;;;;;;3.73;1.20;;;14.10;75.40;;;;;;5065927;28;20883;-65
2023/04/24 04:17:33;;;;;;;6.03;1.33;;;14.10;75.40;;;;;;5067068;28;20511;-65
2023/04/24 04:20:12;;;;;;;5.23;1.23;;;14.10;75.50;;;;;;5069664;28;20447;-65
2023/04/24 04:22:42;;;;;;;3.83;1.13;;;14.10;75.50;;;;;;5064465;28;21175;-65
2023/04/24 04:25:19;;;;;;;4.30;1.13;;;14.10;75.50;;;;;;5066386;28;20507;-65
2023/04/24 04:27:49;;;;;;;4.40;1.27;;;14.00;75.60;;;;;;5067069;28;20548;-65
2023/04/24 04:30:23;;;;;;;5.10;1.40;;;14.00;75.60;;;;;;5062391;28;20529;-65
2023/04/24 04:33:08;;;;;;;4.30;1.83;;;14.00;75.60;;;;;;5062724;28;21336;-65
2023/04/24 04:35:43;;;;;;;6.53;1.67;;;14.00;75.70;;;;;;5061894;28;20868;-65
2023/04/24 04:38:16;;;;;;;5.20;1.40;;;14.00;75.90;;;;;;5066808;28;20482;-65
2023/04/24 04:40:59;;;;;;;5.30;1.30;;;13.90;75.80;;;;;;5067272;28;20465;-65
2023/04/24 04:43:33;;;;;;;5.80;1.60;;;13.80;75.90;;;;;;5064645;28;20468;-65
2023/04/24 04:46:12;;;;;;;6.40;1.37;;;13.80;75.90;;;;;;5065636;28;20565;-65
2023/04/24 04:49:08;;;;;;;5.93;1.90;;;13.80;75.90;;;;;;5069518;28;20935;-65
2023/04/24 04:51:44;;;;;;;4.97;1.87;;;13.70;75.90;;;;;;5064617;28;20595;-65
2023/04/24 04:54:19;;;;;;;3.67;1.67;;;13.70;75.90;;;;;;5066232;28;20780;-65
2023/04/24 04:56:54;;;;;;;7.77;1.90;;;13.70;75.90;;;;;;5074420;28;20556;-65
2023/04/24 04:59:27;;;;;;;4.33;1.90;;;13.60;75.80;;;;;;5063561;28;20936;-66
2023/04/24 05:02:10;;;;;;;5.40;2.00;;;13.60;75.90;;;;;;5062194;28;20557;-66
2023/04/24 05:05:01;;;;;;;4.40;1.37;;;13.50;75.90;;;;;;5069978;28;20492;-66
2023/04/24 05:07:44;;;;;;;4.07;1.77;;;13.50;75.90;;;;;;5065079;28;20527;-66
2023/04/24 05:10:17;;;;;;;5.00;1.70;;;13.50;76.00;;;;;;5066433;28;20491;-66
2023/04/24 05:12:52;;;;;;;3.43;1.30;;;13.50;76.00;;;;;;5065557;28;20470;-66
2023/04/24 05:15:27;;;;;;;4.37;1.67;;;13.50;76.00;;;;;;5075897;28;21036;-66
2023/04/24 05:17:59;;;;;;;3.97;1.53;;;13.50;76.00;;;;;;5067883;28;20484;-66
2023/04/24 05:20:48;;;;;;;5.27;1.53;;;13.50;75.90;;;;;;5068032;28;20957;-66
2023/04/24 05:23:28;;;;;;;4.50;1.80;;;13.50;75.80;;;;;;5065923;28;20933;-66
2023/04/24 05:26:11;;;;;;;4.80;1.70;;;13.50;75.80;;;;;;5063129;28;20539;-66
2023/04/24 05:28:47;;;;;;;5.00;1.60;;;13.40;75.70;;;;;;5045722;28;20471;-66
2023/04/24 05:31:22;;;;;;;4.00;1.77;;;13.40;75.80;;;;;;5065511;28;20480;-66
2023/04/24 05:33:56;;;;;;;4.53;2.23;;;13.50;76.30;;;;;;5060626;28;20467;-66
2023/04/24 05:36:33;;;;;;;4.17;1.67;;;13.60;75.70;;;;;;5066789;28;20524;-66
2023/04/24 05:39:06;;;;;;;7.80;2.53;;;13.60;75.50;;;;;;5063823;28;20504;-66
2023/04/24 05:41:40;;;;;;;6.23;1.97;;;13.70;75.80;;;;;;5062059;28;20477;-66
2023/04/24 05:44:19;;;;;;;7.23;1.83;;;14.10;77.30;;;;;;5062943;28;20448;-66
2023/04/24 05:46:51;;;;;;;6.33;2.00;;;14.50;75.30;;;;;;5066712;28;21191;-66
2023/04/24 05:49:22;;;;;;;4.80;2.13;;;15.00;77.30;;;;;;5063631;28;20998;-66
2023/04/24 05:52:06;;;;;;;5.23;1.73;;;16.30;76.70;;;;;;5068274;28;20468;-67
2023/04/24 05:54:43;;;;;;;4.07;1.83;;;16.90;72.50;;;;;;5071406;28;20839;-66
2023/04/24 05:57:15;;;;;;;4.10;1.90;;;16.70;70.90;;;;;;5084821;28;20466;-66
2023/04/24 05:59:55;;;;;;;4.57;1.77;;;16.30;70.30;;;;;;5069180;28;20561;-66
2023/04/24 06:02:27;;;;;;;3.93;1.73;;;15.80;70.50;;;;;;5065778;28;20863;-66
2023/04/24 06:04:57;;;;;;;4.23;1.90;;;15.40;70.70;;;;;;5050237;28;20482;-66
2023/04/24 06:07:30;;;;;;;5.23;1.70;;;15.10;70.80;;;;;;5067391;28;20454;-66
2023/04/24 06:10:01;;;;;;;6.97;2.33;;;14.80;71.10;;;;;;5069293;28;20462;-67
2023/04/24 06:12:48;;;;;;;4.60;2.00;;;14.50;71.20;;;;;;5068280;28;20554;-67
2023/04/24 06:15:27;;;;;;;4.03;1.87;;;14.30;71.40;;;;;;5063910;28;20489;-67
2023/04/24 06:18:10;;;;;;;5.03;2.60;;;14.20;71.50;;;;;;5068805;28;20478;-68
2023/04/24 06:20:43;;;;;;;5.33;2.00;;;14.10;71.70;;;;;;5067112;28;20462;-67
2023/04/24 06:23:15;;;;;;;4.10;2.07;;;13.90;71.80;;;;;;5061925;28;20495;-67
2023/04/24 06:25:45;;;;;;;4.83;2.10;;;13.90;71.80;;;;;;5070670;28;20526;-67
2023/04/24 06:28:15;;;;;;;7.90;2.70;;;13.80;71.80;;;;;;5067167;28;20523;-67
2023/04/24 06:30:44;;;;;;;7.70;2.47;;;13.70;71.80;;;;;;5071210;28;20550;-67
2023/04/24 06:33:14;;;;;;;5.50;2.40;;;13.60;71.90;;;;;;5067409;28;20556;-67
2023/04/24 06:35:50;;;;;;;5.27;2.20;;;13.60;72.00;;;;;;5062692;28;20465;-67
2023/04/24 06:38:32;;;;;;;5.03;2.43;;;13.60;72.00;;;;;;5068694;28;22011;-67
2023/04/24 06:41:03;;;;;;;4.70;2.40;;;13.60;72.10;;;;;;5070156;28;20917;-67
2023/04/24 06:43:40;;;;;;;6.10;2.70;;;13.70;72.10;;;;;;5067001;28;20464;-67
2023/04/24 06:46:09;;;;;;;5.17;2.50;;;13.70;72.10;;;;;;5069793;28;21009;-67
2023/04/24 06:48:43;;;;;;;6.47;2.43;;;13.70;72.10;;;;;;5068042;28;20450;-67
2023/04/24 06:51:13;;;;;;;6.60;2.67;;;13.70;72.00;;;;;;5068442;28;20828;-67
2023/04/24 06:53:45;;;;;;;5.03;2.80;;;13.70;72.00;;;;;;5065682;28;20562;-67
2023/04/24 06:56:17;;;;;;;5.63;2.40;;;13.70;72.00;;;;;;5069084;28;20481;-67
2023/04/24 06:58:49;;;;;;;6.87;3.00;;;13.80;72.10;;;;;;5067111;28;20478;-67
2023/04/24 07:01:20;;;;;;;5.00;2.97;;;13.80;72.00;;;;;;5065622;28;20541;-67
2023/04/24 07:03:59;;;;;;;4.63;2.40;;;13.90;72.00;;;;;;5066359;28;20463;-67
2023/04/24 07:06:27;;;;;;;5.77;2.40;;;13.90;71.90;;;;;;5067566;28;20550;-67
2023/04/24 07:09:04;;;;;;;5.70;2.87;;;13.90;71.90;;;;;;5067884;28;20462;-67
2023/04/24 07:11:35;;;;;;;6.60;2.90;;;13.90;71.90;;;;;;5070681;28;20464;-67
2023/04/24 07:14:07;;;;;;;8.93;3.07;;;13.90;71.80;;;;;;5065492;28;20458;-67
2023/04/24 07:16:40;;;;;;;5.37;2.80;;;13.90;71.70;;;;;;5065386;28;20524;-68
2023/04/24 07:19:11;;;;;;;7.47;3.23;;;13.90;71.60;;;;;;5067536;28;20481;-67
2023/04/24 07:21:43;;;;;;;6.33;3.20;;;13.90;71.60;;;;;;5066370;28;20470;-68
2023/04/24 07:24:20;;;;;;;8.00;2.93;;;14.00;71.70;;;;;;5067662;28;20463;-67
2023/04/24 07:26:53;;;;;;;5.47;3.23;;;14.00;71.90;;;;;;5068663;28;20514;-67
2023/04/24 07:29:23;;;;;;;5.60;2.77;;;14.10;71.80;;;;;;5069739;28;20453;-67
2023/04/24 07:31:56;;;;;;;5.60;3.07;;;14.10;71.80;;;;;;5059656;28;21251;-67
2023/04/24 07:34:34;;;;;;;4.93;2.90;;;14.10;71.70;;;;;;5065709;28;20515;-67
2023/04/24 07:37:07;;;;;;;5.37;3.20;;;14.10;71.60;;;;;;5065580;28;21074;-68
2023/04/24 07:39:44;;;;;;;5.77;3.30;;;14.20;71.50;;;;;;5070151;28;20513;-68
2023/04/24 07:42:13;;;;;;;8.67;3.07;;;14.20;71.30;;;;;;5063990;28;20469;-68
2023/04/24 07:44:46;;;;;;;6.07;3.50;;;14.20;71.20;;;;;;5062450;28;20464;-67
2023/04/24 07:47:19;;;;;;;6.57;3.50;;;14.20;71.10;;;;;;5060286;28;20458;-67
2023/04/24 07:49:54;;;;;;;6.13;3.60;;;14.10;71.10;;;;;;5065778;28;20829;-68
2023/04/24 07:52:28;;;;;;;6.10;3.03;;;14.10;71.00;;;;;;5067743;28;20475;-68
2023/04/24 07:55:06;;;;;;;7.50;3.47;;;14.10;70.90;;;;;;5067449;28;20489;-67
2023/04/24 07:57:37;;;;;;;5.90;2.80;;;14.10;70.90;;;;;;5067112;28;20480;-68
2023/04/24 08:00:08;;;;;;;6.30;3.10;;;14.10;70.70;;;;;;5069843;28;20480;-68
2023/04/24 08:02:41;;;;;;;6.10;3.40;;;14.00;70.60;;;;;;5059275;28;20975;-68
2023/04/24 08:05:15;;;;;;;6.00;4.07;;;14.00;70.60;;;;;;5064048;28;20854;-68
2023/04/24 08:07:48;;;;;;;7.40;3.40;;;14.00;70.40;;;;;;5065622;28;20520;-68
2023/04/24 08:10:21;;;;;;;6.40;3.43;;;14.00;70.30;;;;;;5066851;28;20454;-68
2023/04/24 08:12:59;;;;;;;5.53;3.33;;;13.90;70.30;;;;;;5058433;28;20467;-67
2023/04/24 08:15:29;;;;;;;7.60;3.43;;;13.90;70.50;;;;;;5061088;28;20477;-69
2023/04/24 08:17:59;;;;;;;7.57;3.57;;;13.90;70.30;;;;;;5067956;28;20468;-69
2023/04/24 08:20:31;;;;;;;5.90;3.23;;;13.90;70.20;;;;;;5064975;28;20884;-67
2023/04/24 08:23:07;;;;;;;12.43;3.10;;;13.90;70.30;;;;;;5064106;28;20448;-68
2023/04/24 08:25:38;;;;;;;7.73;3.30;;;13.90;70.30;;;;;;5066335;28;20523;-68
2023/04/24 08:28:11;;;;;;;9.33;3.13;;;13.80;70.40;;;;;;5066791;28;20457;-68
2023/04/24 08:30:44;;;;;;;5.20;2.80;;;13.80;70.30;;;;;;5065442;28;20575;-68
2023/04/24 08:33:26;;;;;;;7.47;2.60;;;13.70;70.40;;;;;;5067089;28;20461;-69
2023/04/24 08:35:57;;;;;;;4.97;2.87;;;13.80;70.50;;;;;;5067538;28;20760;-67
2023/04/24 08:38:27;;;;;;;5.30;2.80;;;13.80;70.60;;;;;;5067889;28;20473;-68
2023/04/24 08:41:10;;;;;;;4.33;2.40;;;13.80;70.60;;;;;;5068261;28;20488;-68
2023/04/24 08:43:44;;;;;;;5.63;2.10;;;13.80;70.60;;;;;;5068756;28;20465;-69
2023/04/24 08:46:17;;;;;;;4.17;2.23;;;13.80;70.70;;;;;;5066493;28;20468;-68
2023/04/24 08:48:47;;;;;;;4.47;2.00;;;13.90;70.70;;;;;;5067146;28;22081;-69
2023/04/24 08:51:19;;;;;;;5.07;2.50;;;13.90;70.60;;;;;;5065715;28;20477;-66
2023/04/24 08:53:56;;;;;;;5.63;2.27;;;13.90;70.60;;;;;;5066209;28;20497;-66
2023/04/24 08:56:30;;;;;;;4.97;1.83;;;13.90;70.60;;;;;;5067389;28;20492;-66
2023/04/24 08:59:06;;;;;;;4.57;1.93;;;13.90;70.60;;;;;;5071467;28;20453;-65
2023/04/24 09:01:41;;;;;;;4.20;2.10;;;14.00;70.40;;;;;;5059284;28;20461;-65
2023/04/24 09:04:15;;;;;;;4.37;1.90;;;14.00;70.60;;;;;;5067623;28;20482;-65
2023/04/24 09:06:51;;;;;;;5.93;2.03;;;14.00;70.40;;;;;;5068104;28;21224;-65
2023/04/24 09:09:24;;;;;;;5.63;1.97;;;14.00;70.40;;;;;;5068664;28;20560;-66
2023/04/24 09:12:03;;;;;;;4.90;2.30;;;14.10;70.40;;;;;;5068187;28;20464;-65
2023/04/24 09:14:46;;;;;;;7.43;1.90;;;14.10;70.40;;;;;;5067281;28;20453;-65
2023/04/24 09:17:14;;;;;;;5.40;2.20;;;14.10;70.30;;;;;;5064752;28;20477;-65
2023/04/24 09:19:45;;;;;;;4.10;1.90;;;14.20;70.30;;;;;;5067306;28;21016;-65
2023/04/24 09:22:24;;;;;;;22.43;2.30;;;14.20;70.20;;;;;;5066064;28;20452;-66
2023/04/24 09:25:04;;;;;;;4.07;1.90;;;14.20;70.20;;;;;;5069964;28;20449;-65
2023/04/24 09:27:44;;;;;;;3.93;1.90;;;14.30;70.10;;;;;;5071560;28;20461;-65
2023/04/24 09:30:15;;;;;;;5.50;1.83;;;14.30;69.80;;;;;;5069957;28;20457;-66
2023/04/24 09:32:55;;;;;;;4.37;2.00;;;14.30;69.70;;;;;;5071591;28;20460;-65
2023/04/24 09:35:29;;;;;;;10.00;1.83;;;14.30;69.70;;;;;;5068743;28;20522;-66
2023/04/24 09:37:58;;;;;;;4.80;2.37;;;14.30;69.70;;;;;;5070780;28;20532;-65
2023/04/24 09:40:31;;;;;;;4.97;2.20;;;14.30;69.60;;;;;;5072125;28;20531;-66
2023/04/24 09:43:10;;;;;;;5.73;2.13;;;14.40;69.40;;;;;;5069975;28;20550;-65
2023/04/24 09:45:40;;;;;;;4.80;2.30;;;14.40;69.30;;;;;;5072009;28;20752;-65
2023/04/24 09:48:11;;;;;;;4.80;1.90;;;14.40;69.30;;;;;;5070732;28;20460;-66
2023/04/24 09:50:46;;;;;;;4.00;1.80;;;14.40;69.20;;;;;;5067133;28;20927;-65
2023/04/24 09:53:27;;;;;;;4.60;2.00;;;14.40;69.20;;;;;;5068463;28;20466;-66
2023/04/24 09:55:56;;;;;;;4.43;2.03;;;14.50;69.20;;;;;;5070984;28;20452;-66
2023/04/24 09:58:31;;;;;;;5.37;2.10;;;14.50;69.30;;;;;;5073266;28;21153;-66
2023/04/24 10:01:01;;;;;;;4.93;2.30;;;14.60;69.20;;;;;;5069682;28;20594;-66
2023/04/24 10:03:38;;;;;;;6.00;2.53;;;14.70;68.90;;;;;;5068135;28;21088;-66
2023/04/24 10:06:15;;;;;;;6.20;2.50;;;14.70;68.80;;;;;;5071756;28;20462;-66
2023/04/24 10:08:47;;;;;;;5.60;2.80;;;14.80;68.80;;;;;;5070612;28;20501;-66
2023/04/24 10:11:21;;;;;;;4.73;2.60;;;14.80;68.70;;;;;;5068554;28;20547;-66
2023/04/24 10:14:04;;;;;;;8.20;2.50;;;14.90;68.50;;;;;;5069828;28;20795;-66
2023/04/24 10:16:36;;;;;;;7.10;2.90;;;14.90;68.20;;;;;;5070359;28;20447;-67
2023/04/24 10:19:14;;;;;;;5.47;2.63;;;14.80;68.20;;;;;;5074411;28;20872;-66
2023/04/24 10:21:46;;;;;;;6.27;3.30;;;14.80;68.00;;;;;;5069384;28;20489;-66
2023/04/24 10:24:16;;;;;;;6.30;2.60;;;14.80;67.90;;;;;;5072290;28;20938;-67
2023/04/24 10:26:50;;;;;;;5.13;2.70;;;14.80;67.70;;;;;;5069076;28;20465;-66
2023/04/24 10:29:27;;;;;;;7.00;3.60;;;14.70;67.30;;;;;;5070880;28;20556;-67
2023/04/24 10:31:57;;;;;;;5.23;2.83;;;14.70;67.00;;;;;;5067836;28;20477;-66
2023/04/24 10:34:27;;;;;;;7.90;3.20;;;14.60;66.90;;;;;;5071629;28;20459;-65
2023/04/24 10:37:01;;;;;;;5.40;2.73;;;14.50;66.90;;;;;;5070035;28;20515;-65
2023/04/24 10:39:35;;;;;;;4.80;2.57;;;14.50;66.90;;;;;;5070705;28;20517;-66
2023/04/24 10:42:18;;;;;;;4.67;2.43;;;14.40;66.80;;;;;;5068268;28;20470;-66
2023/04/24 10:44:53;;;;;;;12.33;3.10;;;14.30;67.00;;;;;;5068912;28;20518;-67
2023/04/24 10:47:25;;;;;;;7.17;2.67;;;14.30;67.00;;;;;;5072969;28;20843;-65
2023/04/24 10:49:54;;;;;;;4.83;2.50;;;14.30;66.90;;;;;;5070750;28;20454;-65
2023/04/24 10:52:51;;;;;;;5.20;3.43;;;14.30;67.00;;;;;;5069737;28;20462;-66
2023/04/24 10:55:44;;;;;;;5.93;3.00;;;14.30;66.80;;;;;;5069181;28;20455;-65
2023/04/24 10:58:22;;;;;;;5.60;2.90;;;14.20;66.40;;;;;;5070186;28;20461;-66
2023/04/24 11:01:03;;;;;;;8.13;3.23;;;14.20;66.70;;;;;;5064189;28;20963;-65
2023/04/24 11:03:37;;;;;;;6.70;3.77;;;14.30;66.70;;;;;;5069485;28;20561;-65
2023/04/24 11:06:11;;;;;;;5.30;3.03;;;14.20;66.60;;;;;;5071967;28;20484;-66
2023/04/24 11:08:48;;;;;;;5.47;2.50;;;14.20;66.70;;;;;;5069998;28;20480;-66
2023/04/24 11:11:25;;;;;;;5.30;2.43;;;14.20;66.80;;;;;;5066533;28;20474;-65
2023/04/24 11:14:10;;;;;;;5.67;2.53;;;14.20;66.80;;;;;;5068713;28;20458;-66
2023/04/24 11:16:56;;;;;;;5.23;2.40;;;14.20;66.80;;;;;;5069050;28;20462;-66
2023/04/24 11:19:28;;;;;;;7.53;2.60;;;14.20;66.70;;;;;;5071889;28;20461;-66
2023/04/24 11:22:10;;;;;;;4.90;2.50;;;14.20;66.80;;;;;;5069300;28;20475;-66
2023/04/24 11:24:52;;;;;;;6.80;2.47;;;14.20;66.80;;;;;;5068551;28;20450;-67
2023/04/24 11:27:34;;;;;;;5.80;2.73;;;14.10;66.70;;;;;;5064027;28;20981;-67
2023/04/24 11:30:08;;;;;;;5.20;2.20;;;14.10;66.70;;;;;;5064629;28;20550;-67
2023/04/24 11:32:39;;;;;;;4.40;1.53;;;14.10;66.70;;;;;;5066742;28;21076;-66
2023/04/24 11:35:16;;;;;;;5.80;2.33;;;14.10;66.70;;;;;;5063089;28;20465;-65
2023/04/24 11:37:49;;;;;;;4.13;1.87;;;14.10;66.70;;;;;;5068475;28;20566;-65
2023/04/24 11:40:26;;;;;;;10.23;3.27;;;14.10;66.70;;;;;;5065758;28;20449;-65
2023/04/24 11:42:56;;;;;;;7.50;2.10;;;14.10;66.70;;;;;;5063968;28;20484;-65
2023/04/24 11:45:38;;;;;;;4.00;1.90;;;14.10;66.90;;;;;;5066200;28;20458;-65
2023/04/24 11:48:11;;;;;;;4.77;2.50;;;14.10;67.20;;;;;;5068419;28;20448;-65
2023/04/24 11:50:50;;;;;;;8.83;2.47;;;14.10;67.40;;;;;;5068755;28;20457;-65
2023/04/24 11:53:26;;;;;;;5.33;2.20;;;14.20;67.70;;;;;;5069167;28;20449;-65
2023/04/24 11:55:58;;;;;;;6.00;2.40;;;14.30;67.80;;;;;;5065356;28;20456;-65
2023/04/24 11:58:28;;;;;;;5.57;2.40;;;14.40;67.60;;;;;;5065196;28;20460;-65
2023/04/24 12:01:04;;;;;;;5.07;2.17;;;14.50;67.60;;;;;;5068362;28;20532;-65
2023/04/24 12:03:44;;;;;;;4.70;2.10;;;14.60;67.50;;;;;;5068291;28;20494;-65
2023/04/24 12:06:19;;;;;;;7.70;2.10;;;14.60;67.30;;;;;;5068258;28;20462;-65
2023/04/24 12:08:48;;;;;;;4.53;2.17;;;14.60;67.30;;;;;;5067038;28;20569;-65
2023/04/24 12:11:20;;;;;;;4.70;2.07;;;14.60;67.30;;;;;;5068166;28;20486;-65
2023/04/24 12:13:49;;;;;;;5.23;2.30;;;14.60;67.20;;;;;;5065344;28;21050;-65
2023/04/24 12:16:22;;;;;;;4.23;2.17;;;14.60;67.00;;;;;;5067693;28;21199;-65
2023/04/24 12:19:01;;;;;;;5.70;2.07;;;14.60;67.00;;;;;;5067234;28;20551;-65
2023/04/24 12:21:31;;;;;;;4.37;1.80;;;14.70;66.80;;;;;;5068939;28;20489;-65
2023/04/24 12:24:07;;;;;;;4.00;2.00;;;14.70;66.80;;;;;;5068487;28;20546;-65
2023/04/24 12:26:37;;;;;;;4.00;2.07;;;14.80;66.60;;;;;;5065148;28;20462;-65
2023/04/24 12:29:05;;;;;;;7.20;2.30;;;14.80;66.70;;;;;;5063623;28;20498;-68
2023/04/24 12:31:37;;;;;;;4.30;1.80;;;14.80;66.50;;;;;;5063852;28;20472;-65
2023/04/24 12:34:21;;;;;;;4.80;2.50;;;14.80;66.40;;;;;;5066907;28;20471;-65
2023/04/24 12:36:53;;;;;;;5.43;2.27;;;14.80;66.50;;;;;;5072354;28;20459;-65
2023/04/24 12:39:26;;;;;;;3.90;1.83;;;14.90;66.40;;;;;;5066041;28;20454;-65
2023/04/24 12:41:57;;;;;;;4.53;1.90;;;14.90;66.50;;;;;;5064173;28;20480;-65
2023/04/24 12:44:34;;;;;;;4.60;2.37;;;14.90;66.30;;;;;;5063235;28;20556;-65
2023/04/24 12:47:05;;;;;;;9.40;2.50;;;14.90;66.20;;;;;;5065790;28;20451;-65
2023/04/24 12:49:38;;;;;;;5.50;2.17;;;14.90;66.10;;;;;;5068210;28;20454;-65
2023/04/24 12:52:06;;;;;;;4.30;2.10;;;14.90;66.10;;;;;;5066539;28;20462;-65
2023/04/24 12:54:45;;;;;;;7.67;2.63;;;14.80;66.10;;;;;;5069372;28;20463;-65
2023/04/24 12:57:15;;;;;;;8.63;2.63;;;14.90;66.10;;;;;;5060939;28;20801;-65
2023/04/24 12:59:47;;;;;;;5.60;2.57;;;14.80;65.90;;;;;;5064807;28;20464;-65
2023/04/24 13:02:26;;;;;;;5.70;2.90;;;14.70;65.70;;;;;;5067649;28;20606;-65
2023/04/24 13:04:58;;;;;;;5.03;2.37;;;14.60;65.80;;;;;;5068518;28;20466;-65
2023/04/24 13:07:29;;;;;;;5.30;2.57;;;14.60;65.90;;;;;;5066054;28;20611;-65
2023/04/24 13:10:02;;;;;;;9.40;3.27;;;14.60;66.00;;;;;;5066574;28;20955;-65
2023/04/24 13:12:34;;;;;;;5.70;3.17;;;14.60;66.00;;;;;;5062073;28;20488;-65
2023/04/24 13:15:04;;;;;;;4.93;2.57;;;14.60;66.00;;;;;;5061260;28;20475;-65
2023/04/24 13:17:40;;;;;;;7.50;3.20;;;14.60;66.00;;;;;;5064053;28;21254;-65
2023/04/24 13:20:15;;;;;;;6.57;3.17;;;14.70;66.20;;;;;;5061139;28;20464;-65
2023/04/24 13:22:45;;;;;;;5.47;3.13;;;14.70;66.20;;;;;;5066925;28;20499;-65
2023/04/24 13:25:17;;;;;;;4.90;2.80;;;14.80;66.20;;;;;;5066648;28;20483;-65
2023/04/24 13:27:50;;;;;;;5.30;2.93;;;14.80;66.10;;;;;;5069295;28;20461;-65
2023/04/24 13:30:24;;;;;;;5.10;3.00;;;14.90;66.20;;;;;;5067397;28;20467;-65